sensor_id;sensor_type;location;lat;lon;timestamp;P1;durP1;ratioP1;P2;durP2;ratioP2
12556;SDS011;6344;49.932;8.308;2023-02-22T00:02:19;37.23;;;29.33;;
12556;SDS011;6344;49.932;8.308;2023-02-22T00:04:51;37.03;;;28.60;;
12556;SDS011;6344;49.932;8.308;2023-02-22T00:07:18;44.00;;;29.37;;
12556;SDS011;6344;49.932;8.308;2023-02-22T00:09:47;40.77;;;30.07;;
12556;SDS011;6344;49.932;8.308;2023-02-22T00:12:14;40.33;;;29.30;;
12556;SDS011;6344;49.932;8.308;2023-02-22T00:14:42;37.53;;;28.93;;
12556;SDS011;6344;49.932;8.308;2023-02-22T00:17:09;37.83;;;28.40;;
12556;SDS011;6344;49.932;8.308;2023-02-22T00:19:37;44.33;;;32.17;;
12556;SDS011;6344;49.932;8.308;2023-02-22T00:22:04;41.03;;;30.57;;
12556;SDS011;6344;49.932;8.308;2023-02-22T00:24:31;46.83;;;31.83;;
12556;SDS011;6344;49.932;8.308;2023-02-22T00:27:00;45.97;;;32.17;;
12556;SDS011;6344;49.932;8.308;2023-02-22T00:29:27;43.60;;;31.77;;
12556;SDS011;6344;49.932;8.308;2023-02-22T00:31:55;47.03;;;33.20;;
12556;SDS011;6344;49.932;8.308;2023-02-22T00:34:22;48.47;;;31.90;;
12556;SDS011;6344;49.932;8.308;2023-02-22T00:36:49;42.07;;;30.80;;
12556;SDS011;6344;49.932;8.308;2023-02-22T00:39:16;42.67;;;32.13;;
12556;SDS011;6344;49.932;8.308;2023-02-22T00:41:43;48.70;;;31.87;;
12556;SDS011;6344;49.932;8.308;2023-02-22T00:44:09;40.00;;;29.43;;
12556;SDS011;6344;49.932;8.308;2023-02-22T00:46:36;36.20;;;28.20;;
12556;SDS011;6344;49.932;8.308;2023-02-22T00:49:04;41.63;;;29.57;;
12556;SDS011;6344;49.932;8.308;2023-02-22T00:51:31;47.13;;;27.97;;
12556;SDS011;6344;49.932;8.308;2023-02-22T00:53:58;41.33;;;29.03;;
12556;SDS011;6344;49.932;8.308;2023-02-22T00:56:24;42.80;;;29.33;;
12556;SDS011;6344;49.932;8.308;2023-02-22T00:58:51;36.10;;;28.90;;
12556;SDS011;6344;49.932;8.308;2023-02-22T01:01:18;39.37;;;28.03;;
12556;SDS011;6344;49.932;8.308;2023-02-22T01:03:45;41.03;;;29.40;;
12556;SDS011;6344;49.932;8.308;2023-02-22T01:06:13;40.43;;;29.00;;
12556;SDS011;6344;49.932;8.308;2023-02-22T01:08:42;42.03;;;29.97;;
12556;SDS011;6344;49.932;8.308;2023-02-22T01:11:09;46.57;;;29.50;;
12556;SDS011;6344;49.932;8.308;2023-02-22T01:13:36;38.13;;;26.97;;
12556;SDS011;6344;49.932;8.308;2023-02-22T01:16:03;40.77;;;29.87;;
12556;SDS011;6344;49.932;8.308;2023-02-22T01:18:32;49.90;;;33.13;;
12556;SDS011;6344;49.932;8.308;2023-02-22T01:20:59;45.87;;;31.77;;
12556;SDS011;6344;49.932;8.308;2023-02-22T01:23:27;49.63;;;33.67;;
12556;SDS011;6344;49.932;8.308;2023-02-22T01:25:54;45.53;;;32.33;;
12556;SDS011;6344;49.932;8.308;2023-02-22T01:28:21;55.07;;;34.60;;
12556;SDS011;6344;49.932;8.308;2023-02-22T01:30:48;39.33;;;29.47;;
12556;SDS011;6344;49.932;8.308;2023-02-22T01:33:15;41.93;;;33.70;;
12556;SDS011;6344;49.932;8.308;2023-02-22T01:35:42;45.70;;;29.90;;
12556;SDS011;6344;49.932;8.308;2023-02-22T01:38:10;59.00;;;32.87;;
12556;SDS011;6344;49.932;8.308;2023-02-22T01:40:40;41.83;;;30.60;;
12556;SDS011;6344;49.932;8.308;2023-02-22T01:43:13;45.30;;;32.37;;
12556;SDS011;6344;49.932;8.308;2023-02-22T01:45:48;44.70;;;31.67;;
12556;SDS011;6344;49.932;8.308;2023-02-22T01:48:19;49.80;;;31.33;;
12556;SDS011;6344;49.932;8.308;2023-02-22T01:50:51;50.93;;;31.63;;
12556;SDS011;6344;49.932;8.308;2023-02-22T01:53:21;43.50;;;32.40;;
12556;SDS011;6344;49.932;8.308;2023-02-22T01:55:51;42.97;;;29.20;;
12556;SDS011;6344;49.932;8.308;2023-02-22T01:58:20;44.83;;;29.60;;
12556;SDS011;6344;49.932;8.308;2023-02-22T02:00:49;43.70;;;27.43;;
12556;SDS011;6344;49.932;8.308;2023-02-22T02:03:16;45.97;;;31.10;;
12556;SDS011;6344;49.932;8.308;2023-02-22T02:05:47;47.50;;;32.37;;
12556;SDS011;6344;49.932;8.308;2023-02-22T02:08:20;48.13;;;33.10;;
12556;SDS011;6344;49.932;8.308;2023-02-22T02:10:55;54.40;;;33.17;;
12556;SDS011;6344;49.932;8.308;2023-02-22T02:13:23;44.40;;;32.97;;
12556;SDS011;6344;49.932;8.308;2023-02-22T02:15:52;50.77;;;34.27;;
12556;SDS011;6344;49.932;8.308;2023-02-22T02:18:20;48.53;;;31.50;;
12556;SDS011;6344;49.932;8.308;2023-02-22T02:20:51;47.57;;;33.40;;
12556;SDS011;6344;49.932;8.308;2023-02-22T02:23:37;52.63;;;36.07;;
12556;SDS011;6344;49.932;8.308;2023-02-22T02:26:30;48.80;;;35.80;;
12556;SDS011;6344;49.932;8.308;2023-02-22T02:32:15;44.80;;;32.67;;
12556;SDS011;6344;49.932;8.308;2023-02-22T02:34:53;43.37;;;32.73;;
12556;SDS011;6344;49.932;8.308;2023-02-22T02:37:31;48.40;;;32.30;;
12556;SDS011;6344;49.932;8.308;2023-02-22T02:40:08;53.97;;;36.37;;
12556;SDS011;6344;49.932;8.308;2023-02-22T02:42:43;50.47;;;34.20;;
12556;SDS011;6344;49.932;8.308;2023-02-22T02:45:18;48.33;;;34.37;;
12556;SDS011;6344;49.932;8.308;2023-02-22T02:47:51;58.47;;;37.47;;
12556;SDS011;6344;49.932;8.308;2023-02-22T02:50:23;50.13;;;36.60;;
12556;SDS011;6344;49.932;8.308;2023-02-22T02:52:53;46.93;;;32.60;;
12556;SDS011;6344;49.932;8.308;2023-02-22T02:55:24;50.20;;;31.50;;
12556;SDS011;6344;49.932;8.308;2023-02-22T02:57:53;49.63;;;32.40;;
12556;SDS011;6344;49.932;8.308;2023-02-22T03:00:20;52.87;;;33.57;;
12556;SDS011;6344;49.932;8.308;2023-02-22T03:02:56;42.70;;;30.40;;
12556;SDS011;6344;49.932;8.308;2023-02-22T03:05:40;43.60;;;29.03;;
12556;SDS011;6344;49.932;8.308;2023-02-22T03:08:21;42.70;;;30.77;;
12556;SDS011;6344;49.932;8.308;2023-02-22T03:10:54;41.93;;;29.67;;
12556;SDS011;6344;49.932;8.308;2023-02-22T03:13:28;44.97;;;30.47;;
12556;SDS011;6344;49.932;8.308;2023-02-22T03:16:01;40.50;;;28.83;;
12556;SDS011;6344;49.932;8.308;2023-02-22T03:18:40;40.30;;;28.83;;
12556;SDS011;6344;49.932;8.308;2023-02-22T03:21:16;39.13;;;27.43;;
12556;SDS011;6344;49.932;8.308;2023-02-22T03:23:54;42.50;;;28.27;;
12556;SDS011;6344;49.932;8.308;2023-02-22T03:26:28;35.47;;;27.40;;
12556;SDS011;6344;49.932;8.308;2023-02-22T03:28:59;43.47;;;27.90;;
12556;SDS011;6344;49.932;8.308;2023-02-22T03:31:30;42.53;;;28.83;;
12556;SDS011;6344;49.932;8.308;2023-02-22T03:34:03;43.17;;;28.47;;
12556;SDS011;6344;49.932;8.308;2023-02-22T03:36:34;46.90;;;27.73;;
12556;SDS011;6344;49.932;8.308;2023-02-22T03:39:04;52.77;;;31.90;;
12556;SDS011;6344;49.932;8.308;2023-02-22T03:41:36;44.13;;;28.60;;
12556;SDS011;6344;49.932;8.308;2023-02-22T03:44:05;41.33;;;29.90;;
12556;SDS011;6344;49.932;8.308;2023-02-22T03:46:35;41.70;;;29.70;;
12556;SDS011;6344;49.932;8.308;2023-02-22T03:49:08;44.77;;;31.10;;
12556;SDS011;6344;49.932;8.308;2023-02-22T03:51:38;42.73;;;29.77;;
12556;SDS011;6344;49.932;8.308;2023-02-22T03:54:04;50.00;;;30.53;;
12556;SDS011;6344;49.932;8.308;2023-02-22T03:56:33;41.50;;;28.87;;
12556;SDS011;6344;49.932;8.308;2023-02-22T03:59:03;47.70;;;28.80;;
12556;SDS011;6344;49.932;8.308;2023-02-22T04:01:31;48.50;;;31.97;;
12556;SDS011;6344;49.932;8.308;2023-02-22T04:03:58;36.77;;;28.20;;
12556;SDS011;6344;49.932;8.308;2023-02-22T04:06:26;44.13;;;29.43;;
12556;SDS011;6344;49.932;8.308;2023-02-22T04:08:54;42.73;;;29.07;;
12556;SDS011;6344;49.932;8.308;2023-02-22T04:11:21;46.80;;;31.37;;
12556;SDS011;6344;49.932;8.308;2023-02-22T04:13:48;48.13;;;34.10;;
12556;SDS011;6344;49.932;8.308;2023-02-22T04:16:14;47.77;;;30.80;;
12556;SDS011;6344;49.932;8.308;2023-02-22T04:18:41;44.53;;;31.70;;
12556;SDS011;6344;49.932;8.308;2023-02-22T04:21:08;50.63;;;33.60;;
12556;SDS011;6344;49.932;8.308;2023-02-22T04:23:35;47.13;;;33.27;;
12556;SDS011;6344;49.932;8.308;2023-02-22T04:26:02;60.03;;;37.50;;
12556;SDS011;6344;49.932;8.308;2023-02-22T04:28:29;54.17;;;34.60;;
12556;SDS011;6344;49.932;8.308;2023-02-22T04:30:55;51.73;;;34.70;;
12556;SDS011;6344;49.932;8.308;2023-02-22T04:33:22;48.97;;;32.90;;
12556;SDS011;6344;49.932;8.308;2023-02-22T04:35:49;55.50;;;36.47;;
12556;SDS011;6344;49.932;8.308;2023-02-22T04:38:16;53.47;;;36.60;;
12556;SDS011;6344;49.932;8.308;2023-02-22T04:40:44;50.43;;;35.37;;
12556;SDS011;6344;49.932;8.308;2023-02-22T04:43:11;52.30;;;34.50;;
12556;SDS011;6344;49.932;8.308;2023-02-22T04:45:37;51.03;;;34.30;;
12556;SDS011;6344;49.932;8.308;2023-02-22T04:48:04;64.50;;;35.70;;
12556;SDS011;6344;49.932;8.308;2023-02-22T04:50:31;51.33;;;33.97;;
12556;SDS011;6344;49.932;8.308;2023-02-22T04:52:57;61.73;;;37.10;;
12556;SDS011;6344;49.932;8.308;2023-02-22T04:55:24;57.97;;;37.80;;
12556;SDS011;6344;49.932;8.308;2023-02-22T04:57:53;56.97;;;36.80;;
12556;SDS011;6344;49.932;8.308;2023-02-22T05:00:20;62.97;;;33.23;;
12556;SDS011;6344;49.932;8.308;2023-02-22T05:02:47;50.00;;;33.43;;
12556;SDS011;6344;49.932;8.308;2023-02-22T05:05:14;51.73;;;33.03;;
12556;SDS011;6344;49.932;8.308;2023-02-22T05:07:41;56.97;;;36.50;;
12556;SDS011;6344;49.932;8.308;2023-02-22T05:10:08;59.83;;;37.57;;
12556;SDS011;6344;49.932;8.308;2023-02-22T05:12:34;51.03;;;31.67;;
12556;SDS011;6344;49.932;8.308;2023-02-22T05:15:02;50.43;;;33.47;;
12556;SDS011;6344;49.932;8.308;2023-02-22T05:17:29;46.60;;;33.50;;
12556;SDS011;6344;49.932;8.308;2023-02-22T05:19:56;57.63;;;34.50;;
12556;SDS011;6344;49.932;8.308;2023-02-22T05:22:23;52.00;;;34.20;;
12556;SDS011;6344;49.932;8.308;2023-02-22T05:24:49;56.20;;;34.30;;
12556;SDS011;6344;49.932;8.308;2023-02-22T05:27:16;59.50;;;35.30;;
12556;SDS011;6344;49.932;8.308;2023-02-22T05:29:43;54.10;;;35.60;;
12556;SDS011;6344;49.932;8.308;2023-02-22T05:32:11;51.00;;;34.30;;
12556;SDS011;6344;49.932;8.308;2023-02-22T05:34:38;52.07;;;33.90;;
12556;SDS011;6344;49.932;8.308;2023-02-22T05:37:05;48.70;;;32.83;;
12556;SDS011;6344;49.932;8.308;2023-02-22T05:39:32;57.77;;;34.40;;
12556;SDS011;6344;49.932;8.308;2023-02-22T05:41:58;49.50;;;33.30;;
12556;SDS011;6344;49.932;8.308;2023-02-22T05:44:25;60.40;;;35.30;;
12556;SDS011;6344;49.932;8.308;2023-02-22T05:46:52;52.27;;;34.70;;
12556;SDS011;6344;49.932;8.308;2023-02-22T05:49:20;58.33;;;36.17;;
12556;SDS011;6344;49.932;8.308;2023-02-22T05:51:47;57.97;;;36.50;;
12556;SDS011;6344;49.932;8.308;2023-02-22T05:54:13;50.43;;;35.03;;
12556;SDS011;6344;49.932;8.308;2023-02-22T05:56:40;54.60;;;35.67;;
12556;SDS011;6344;49.932;8.308;2023-02-22T05:59:07;51.40;;;35.00;;
12556;SDS011;6344;49.932;8.308;2023-02-22T06:01:33;52.90;;;35.27;;
12556;SDS011;6344;49.932;8.308;2023-02-22T06:04:00;49.70;;;33.03;;
12556;SDS011;6344;49.932;8.308;2023-02-22T06:06:28;55.57;;;37.00;;
12556;SDS011;6344;49.932;8.308;2023-02-22T06:08:55;47.03;;;34.40;;
12556;SDS011;6344;49.932;8.308;2023-02-22T06:11:21;54.97;;;34.90;;
12556;SDS011;6344;49.932;8.308;2023-02-22T06:13:48;47.67;;;34.67;;
12556;SDS011;6344;49.932;8.308;2023-02-22T06:16:16;53.40;;;33.83;;
12556;SDS011;6344;49.932;8.308;2023-02-22T06:18:43;59.43;;;34.87;;
12556;SDS011;6344;49.932;8.308;2023-02-22T06:21:09;49.10;;;33.67;;
12556;SDS011;6344;49.932;8.308;2023-02-22T06:23:37;58.87;;;35.63;;
12556;SDS011;6344;49.932;8.308;2023-02-22T06:26:04;60.30;;;37.07;;
12556;SDS011;6344;49.932;8.308;2023-02-22T06:28:31;60.30;;;36.77;;
12556;SDS011;6344;49.932;8.308;2023-02-22T06:30:57;58.13;;;35.70;;
12556;SDS011;6344;49.932;8.308;2023-02-22T06:33:24;70.90;;;35.57;;
12556;SDS011;6344;49.932;8.308;2023-02-22T06:35:51;54.03;;;34.83;;
12556;SDS011;6344;49.932;8.308;2023-02-22T06:38:19;57.40;;;36.27;;
12556;SDS011;6344;49.932;8.308;2023-02-22T06:40:48;50.97;;;34.23;;
12556;SDS011;6344;49.932;8.308;2023-02-22T06:43:15;56.23;;;33.77;;
12556;SDS011;6344;49.932;8.308;2023-02-22T06:45:42;57.07;;;36.53;;
12556;SDS011;6344;49.932;8.308;2023-02-22T06:48:09;53.23;;;33.50;;
12556;SDS011;6344;49.932;8.308;2023-02-22T06:50:35;53.47;;;35.00;;
12556;SDS011;6344;49.932;8.308;2023-02-22T06:53:02;50.17;;;35.70;;
12556;SDS011;6344;49.932;8.308;2023-02-22T06:55:30;61.07;;;37.17;;
12556;SDS011;6344;49.932;8.308;2023-02-22T06:58:00;47.23;;;36.27;;
12556;SDS011;6344;49.932;8.308;2023-02-22T07:00:29;56.97;;;35.87;;
12556;SDS011;6344;49.932;8.308;2023-02-22T07:02:57;55.67;;;37.80;;
12556;SDS011;6344;49.932;8.308;2023-02-22T07:05:25;67.60;;;41.90;;
12556;SDS011;6344;49.932;8.308;2023-02-22T07:07:53;54.37;;;36.73;;
12556;SDS011;6344;49.932;8.308;2023-02-22T07:10:26;49.83;;;37.37;;
12556;SDS011;6344;49.932;8.308;2023-02-22T07:12:54;56.60;;;38.17;;
12556;SDS011;6344;49.932;8.308;2023-02-22T07:15:23;66.07;;;40.37;;
12556;SDS011;6344;49.932;8.308;2023-02-22T07:17:51;56.80;;;38.23;;
12556;SDS011;6344;49.932;8.308;2023-02-22T07:20:19;51.73;;;35.80;;
12556;SDS011;6344;49.932;8.308;2023-02-22T07:22:46;54.67;;;37.17;;
12556;SDS011;6344;49.932;8.308;2023-02-22T07:25:13;51.70;;;35.47;;
12556;SDS011;6344;49.932;8.308;2023-02-22T07:27:40;50.57;;;36.10;;
12556;SDS011;6344;49.932;8.308;2023-02-22T07:30:09;51.87;;;36.30;;
12556;SDS011;6344;49.932;8.308;2023-02-22T07:32:43;53.87;;;35.83;;
12556;SDS011;6344;49.932;8.308;2023-02-22T07:35:13;53.67;;;35.67;;
12556;SDS011;6344;49.932;8.308;2023-02-22T07:37:40;54.80;;;37.57;;
12556;SDS011;6344;49.932;8.308;2023-02-22T07:40:07;44.27;;;34.10;;
12556;SDS011;6344;49.932;8.308;2023-02-22T07:42:48;43.80;;;32.47;;
12556;SDS011;6344;49.932;8.308;2023-02-22T07:45:16;40.50;;;30.53;;
12556;SDS011;6344;49.932;8.308;2023-02-22T07:47:45;45.57;;;30.90;;
12556;SDS011;6344;49.932;8.308;2023-02-22T07:50:12;38.47;;;30.53;;
12556;SDS011;6344;49.932;8.308;2023-02-22T07:52:39;42.90;;;30.40;;
12556;SDS011;6344;49.932;8.308;2023-02-22T07:55:10;33.80;;;28.73;;
12556;SDS011;6344;49.932;8.308;2023-02-22T07:57:38;42.83;;;30.60;;
12556;SDS011;6344;49.932;8.308;2023-02-22T08:00:05;36.17;;;28.73;;
12556;SDS011;6344;49.932;8.308;2023-02-22T08:02:32;42.27;;;31.57;;
12556;SDS011;6344;49.932;8.308;2023-02-22T08:05:00;36.70;;;28.13;;
12556;SDS011;6344;49.932;8.308;2023-02-22T08:07:27;32.43;;;28.97;;
12556;SDS011;6344;49.932;8.308;2023-02-22T08:09:53;37.33;;;30.80;;
12556;SDS011;6344;49.932;8.308;2023-02-22T08:12:20;41.23;;;30.50;;
12556;SDS011;6344;49.932;8.308;2023-02-22T08:14:46;42.27;;;30.00;;
12556;SDS011;6344;49.932;8.308;2023-02-22T08:17:13;37.93;;;30.13;;
12556;SDS011;6344;49.932;8.308;2023-02-22T08:19:40;35.73;;;29.27;;
12556;SDS011;6344;49.932;8.308;2023-02-22T08:22:08;36.00;;;30.43;;
12556;SDS011;6344;49.932;8.308;2023-02-22T08:24:34;35.80;;;30.37;;
12556;SDS011;6344;49.932;8.308;2023-02-22T08:27:01;35.47;;;29.43;;
12556;SDS011;6344;49.932;8.308;2023-02-22T08:29:27;34.97;;;31.00;;
12556;SDS011;6344;49.932;8.308;2023-02-22T08:31:57;35.93;;;30.67;;
12556;SDS011;6344;49.932;8.308;2023-02-22T08:34:24;33.23;;;29.63;;
12556;SDS011;6344;49.932;8.308;2023-02-22T08:36:51;35.63;;;28.07;;
12556;SDS011;6344;49.932;8.308;2023-02-22T08:39:19;34.50;;;29.03;;
12556;SDS011;6344;49.932;8.308;2023-02-22T08:41:45;35.30;;;30.77;;
12556;SDS011;6344;49.932;8.308;2023-02-22T08:44:12;39.93;;;31.10;;
12556;SDS011;6344;49.932;8.308;2023-02-22T08:46:39;43.17;;;32.13;;
12556;SDS011;6344;49.932;8.308;2023-02-22T08:49:05;34.50;;;30.63;;
12556;SDS011;6344;49.932;8.308;2023-02-22T08:51:33;36.87;;;30.37;;
12556;SDS011;6344;49.932;8.308;2023-02-22T08:54:00;38.20;;;29.67;;
12556;SDS011;6344;49.932;8.308;2023-02-22T08:56:28;38.00;;;32.67;;
12556;SDS011;6344;49.932;8.308;2023-02-22T08:58:55;33.50;;;29.70;;
12556;SDS011;6344;49.932;8.308;2023-02-22T09:01:22;36.93;;;31.20;;
12556;SDS011;6344;49.932;8.308;2023-02-22T09:03:49;42.17;;;33.50;;
12556;SDS011;6344;49.932;8.308;2023-02-22T09:06:16;38.30;;;30.10;;
12556;SDS011;6344;49.932;8.308;2023-02-22T09:08:43;42.63;;;32.20;;
12556;SDS011;6344;49.932;8.308;2023-02-22T09:11:10;42.43;;;32.40;;
12556;SDS011;6344;49.932;8.308;2023-02-22T09:13:38;50.67;;;35.20;;
12556;SDS011;6344;49.932;8.308;2023-02-22T09:16:04;66.80;;;38.17;;
12556;SDS011;6344;49.932;8.308;2023-02-22T09:18:32;51.23;;;37.73;;
12556;SDS011;6344;49.932;8.308;2023-02-22T09:20:58;50.37;;;38.40;;
12556;SDS011;6344;49.932;8.308;2023-02-22T09:23:25;53.90;;;36.50;;
12556;SDS011;6344;49.932;8.308;2023-02-22T09:25:51;46.17;;;36.47;;
12556;SDS011;6344;49.932;8.308;2023-02-22T09:28:18;48.20;;;32.03;;
12556;SDS011;6344;49.932;8.308;2023-02-22T09:30:46;55.63;;;33.47;;
12556;SDS011;6344;49.932;8.308;2023-02-22T09:33:14;52.40;;;31.80;;
12556;SDS011;6344;49.932;8.308;2023-02-22T09:35:42;47.60;;;29.53;;
12556;SDS011;6344;49.932;8.308;2023-02-22T09:38:11;40.23;;;28.13;;
12556;SDS011;6344;49.932;8.308;2023-02-22T09:40:39;62.13;;;34.10;;
12556;SDS011;6344;49.932;8.308;2023-02-22T09:43:15;65.37;;;34.83;;
12556;SDS011;6344;49.932;8.308;2023-02-22T09:46:00;77.30;;;38.20;;
12556;SDS011;6344;49.932;8.308;2023-02-22T09:48:36;57.77;;;36.67;;
12556;SDS011;6344;49.932;8.308;2023-02-22T09:51:10;53.27;;;35.10;;
12556;SDS011;6344;49.932;8.308;2023-02-22T09:53:43;53.90;;;33.03;;
12556;SDS011;6344;49.932;8.308;2023-02-22T09:56:14;44.27;;;31.50;;
12556;SDS011;6344;49.932;8.308;2023-02-22T09:58:43;48.17;;;32.57;;
12556;SDS011;6344;49.932;8.308;2023-02-22T10:01:17;52.63;;;33.33;;
12556;SDS011;6344;49.932;8.308;2023-02-22T10:03:49;50.03;;;32.73;;
12556;SDS011;6344;49.932;8.308;2023-02-22T10:06:24;40.73;;;31.60;;
12556;SDS011;6344;49.932;8.308;2023-02-22T10:08:51;55.67;;;32.97;;
12556;SDS011;6344;49.932;8.308;2023-02-22T10:11:28;46.17;;;27.57;;
12556;SDS011;6344;49.932;8.308;2023-02-22T10:14:03;44.87;;;29.50;;
12556;SDS011;6344;49.932;8.308;2023-02-22T10:16:45;42.40;;;31.10;;
12556;SDS011;6344;49.932;8.308;2023-02-22T10:19:21;49.93;;;33.93;;
12556;SDS011;6344;49.932;8.308;2023-02-22T10:21:56;42.80;;;31.57;;
12556;SDS011;6344;49.932;8.308;2023-02-22T10:24:48;46.87;;;34.00;;
12556;SDS011;6344;49.932;8.308;2023-02-22T10:27:24;47.17;;;35.73;;
12556;SDS011;6344;49.932;8.308;2023-02-22T10:29:58;48.37;;;34.73;;
12556;SDS011;6344;49.932;8.308;2023-02-22T10:32:33;42.53;;;31.90;;
12556;SDS011;6344;49.932;8.308;2023-02-22T10:35:12;48.20;;;35.90;;
12556;SDS011;6344;49.932;8.308;2023-02-22T10:37:45;47.57;;;35.43;;
12556;SDS011;6344;49.932;8.308;2023-02-22T10:40:14;40.47;;;34.27;;
12556;SDS011;6344;49.932;8.308;2023-02-22T10:42:44;41.30;;;32.43;;
12556;SDS011;6344;49.932;8.308;2023-02-22T10:45:19;44.97;;;35.50;;
12556;SDS011;6344;49.932;8.308;2023-02-22T10:47:50;40.40;;;34.37;;
12556;SDS011;6344;49.932;8.308;2023-02-22T10:50:19;44.73;;;35.77;;
12556;SDS011;6344;49.932;8.308;2023-02-22T10:52:47;44.33;;;34.80;;
12556;SDS011;6344;49.932;8.308;2023-02-22T10:55:14;42.20;;;35.50;;
12556;SDS011;6344;49.932;8.308;2023-02-22T10:57:43;39.27;;;34.60;;
12556;SDS011;6344;49.932;8.308;2023-02-22T11:00:12;38.70;;;34.50;;
12556;SDS011;6344;49.932;8.308;2023-02-22T11:02:48;37.53;;;33.30;;
12556;SDS011;6344;49.932;8.308;2023-02-22T11:05:25;39.20;;;35.00;;
12556;SDS011;6344;49.932;8.308;2023-02-22T11:08:14;41.87;;;35.27;;
12556;SDS011;6344;49.932;8.308;2023-02-22T11:10:47;39.23;;;33.03;;
12556;SDS011;6344;49.932;8.308;2023-02-22T11:13:16;41.63;;;34.87;;
12556;SDS011;6344;49.932;8.308;2023-02-22T11:15:43;40.70;;;34.43;;
12556;SDS011;6344;49.932;8.308;2023-02-22T11:18:21;38.73;;;34.40;;
12556;SDS011;6344;49.932;8.308;2023-02-22T11:20:57;43.43;;;34.13;;
12556;SDS011;6344;49.932;8.308;2023-02-22T11:23:26;41.93;;;33.87;;
12556;SDS011;6344;49.932;8.308;2023-02-22T11:25:59;40.40;;;35.93;;
12556;SDS011;6344;49.932;8.308;2023-02-22T11:28:29;42.13;;;35.80;;
12556;SDS011;6344;49.932;8.308;2023-02-22T11:30:57;38.27;;;34.10;;
12556;SDS011;6344;49.932;8.308;2023-02-22T11:33:35;39.80;;;35.50;;
12556;SDS011;6344;49.932;8.308;2023-02-22T11:36:03;38.47;;;34.23;;
12556;SDS011;6344;49.932;8.308;2023-02-22T11:38:34;35.53;;;32.03;;
12556;SDS011;6344;49.932;8.308;2023-02-22T11:41:06;37.37;;;33.77;;
12556;SDS011;6344;49.932;8.308;2023-02-22T11:43:39;40.00;;;33.97;;
12556;SDS011;6344;49.932;8.308;2023-02-22T11:46:08;38.70;;;33.17;;
12556;SDS011;6344;49.932;8.308;2023-02-22T11:48:40;39.47;;;35.40;;
12556;SDS011;6344;49.932;8.308;2023-02-22T11:51:16;37.43;;;33.53;;
12556;SDS011;6344;49.932;8.308;2023-02-22T11:53:57;37.93;;;34.00;;
12556;SDS011;6344;49.932;8.308;2023-02-22T11:56:44;38.17;;;34.20;;
12556;SDS011;6344;49.932;8.308;2023-02-22T11:59:16;38.50;;;34.87;;
12556;SDS011;6344;49.932;8.308;2023-02-22T12:01:52;36.67;;;33.10;;
12556;SDS011;6344;49.932;8.308;2023-02-22T12:04:37;35.07;;;31.77;;
12556;SDS011;6344;49.932;8.308;2023-02-22T12:07:16;35.43;;;31.83;;
12556;SDS011;6344;49.932;8.308;2023-02-22T12:09:55;37.07;;;33.37;;
12556;SDS011;6344;49.932;8.308;2023-02-22T12:12:32;37.77;;;33.63;;
12556;SDS011;6344;49.932;8.308;2023-02-22T12:15:07;38.33;;;34.37;;
12556;SDS011;6344;49.932;8.308;2023-02-22T12:17:43;35.87;;;32.47;;
12556;SDS011;6344;49.932;8.308;2023-02-22T12:20:18;35.97;;;32.10;;
12556;SDS011;6344;49.932;8.308;2023-02-22T12:22:51;34.17;;;30.87;;
12556;SDS011;6344;49.932;8.308;2023-02-22T12:25:28;34.93;;;31.73;;
12556;SDS011;6344;49.932;8.308;2023-02-22T12:27:59;35.03;;;31.67;;
12556;SDS011;6344;49.932;8.308;2023-02-22T12:30:36;35.90;;;32.60;;
12556;SDS011;6344;49.932;8.308;2023-02-22T12:33:08;35.57;;;32.17;;
12556;SDS011;6344;49.932;8.308;2023-02-22T12:35:41;36.97;;;33.37;;
12556;SDS011;6344;49.932;8.308;2023-02-22T12:38:15;35.47;;;31.90;;
12556;SDS011;6344;49.932;8.308;2023-02-22T12:40:48;36.70;;;33.27;;
12556;SDS011;6344;49.932;8.308;2023-02-22T12:43:22;34.43;;;31.27;;
12556;SDS011;6344;49.932;8.308;2023-02-22T12:45:55;36.10;;;32.67;;
12556;SDS011;6344;49.932;8.308;2023-02-22T12:48:30;35.73;;;32.30;;
12556;SDS011;6344;49.932;8.308;2023-02-22T12:51:14;35.30;;;31.90;;
12556;SDS011;6344;49.932;8.308;2023-02-22T12:53:52;33.87;;;30.67;;
12556;SDS011;6344;49.932;8.308;2023-02-22T12:56:27;34.80;;;31.20;;
12556;SDS011;6344;49.932;8.308;2023-02-22T12:58:58;35.83;;;32.20;;
12556;SDS011;6344;49.932;8.308;2023-02-22T13:01:33;34.60;;;31.50;;
12556;SDS011;6344;49.932;8.308;2023-02-22T13:04:04;36.17;;;32.63;;
12556;SDS011;6344;49.932;8.308;2023-02-22T13:06:43;32.90;;;29.93;;
12556;SDS011;6344;49.932;8.308;2023-02-22T13:09:21;34.40;;;31.30;;
12556;SDS011;6344;49.932;8.308;2023-02-22T13:12:04;36.53;;;32.63;;
12556;SDS011;6344;49.932;8.308;2023-02-22T13:14:38;34.60;;;31.20;;
12556;SDS011;6344;49.932;8.308;2023-02-22T13:17:14;34.33;;;31.30;;
12556;SDS011;6344;49.932;8.308;2023-02-22T13:19:49;34.50;;;31.10;;
12556;SDS011;6344;49.932;8.308;2023-02-22T13:22:25;35.20;;;32.00;;
12556;SDS011;6344;49.932;8.308;2023-02-22T13:25:00;34.47;;;31.47;;
12556;SDS011;6344;49.932;8.308;2023-02-22T13:27:33;35.80;;;32.50;;
12556;SDS011;6344;49.932;8.308;2023-02-22T13:30:03;34.67;;;31.57;;
12556;SDS011;6344;49.932;8.308;2023-02-22T13:32:42;35.77;;;32.37;;
12556;SDS011;6344;49.932;8.308;2023-02-22T13:35:29;34.17;;;31.03;;
12556;SDS011;6344;49.932;8.308;2023-02-22T13:38:22;35.90;;;32.50;;
12556;SDS011;6344;49.932;8.308;2023-02-22T13:41:15;34.50;;;31.20;;
12556;SDS011;6344;49.932;8.308;2023-02-22T13:43:59;33.43;;;30.17;;
12556;SDS011;6344;49.932;8.308;2023-02-22T13:46:45;33.60;;;30.50;;
12556;SDS011;6344;49.932;8.308;2023-02-22T13:49:50;36.10;;;32.63;;
12556;SDS011;6344;49.932;8.308;2023-02-22T13:52:27;34.50;;;31.30;;
12556;SDS011;6344;49.932;8.308;2023-02-22T13:54:58;36.13;;;32.70;;
12556;SDS011;6344;49.932;8.308;2023-02-22T13:57:27;35.70;;;32.40;;
12556;SDS011;6344;49.932;8.308;2023-02-22T14:02:57;33.90;;;30.70;;
12556;SDS011;6344;49.932;8.308;2023-02-22T14:05:42;33.93;;;30.70;;
12556;SDS011;6344;49.932;8.308;2023-02-22T14:14:23;35.80;;;32.40;;
12556;SDS011;6344;49.932;8.308;2023-02-22T14:22:55;35.00;;;31.50;;
12556;SDS011;6344;49.932;8.308;2023-02-22T14:25:43;35.93;;;32.20;;
12556;SDS011;6344;49.932;8.308;2023-02-22T14:31:05;33.43;;;30.23;;
12556;SDS011;6344;49.932;8.308;2023-02-22T14:33:49;33.63;;;30.53;;
12556;SDS011;6344;49.932;8.308;2023-02-22T14:36:29;35.77;;;32.53;;
12556;SDS011;6344;49.932;8.308;2023-02-22T14:39:02;35.13;;;31.73;;
12556;SDS011;6344;49.932;8.308;2023-02-22T14:41:37;35.90;;;32.33;;
12556;SDS011;6344;49.932;8.308;2023-02-22T14:44:05;31.57;;;28.63;;
12556;SDS011;6344;49.932;8.308;2023-02-22T14:46:39;37.83;;;33.97;;
12556;SDS011;6344;49.932;8.308;2023-02-22T14:49:08;36.80;;;33.30;;
12556;SDS011;6344;49.932;8.308;2023-02-22T14:51:43;35.83;;;32.27;;
12556;SDS011;6344;49.932;8.308;2023-02-22T14:54:19;34.73;;;31.70;;
12556;SDS011;6344;49.932;8.308;2023-02-22T14:56:51;36.00;;;32.37;;
12556;SDS011;6344;49.932;8.308;2023-02-22T14:59:34;35.23;;;32.00;;
12556;SDS011;6344;49.932;8.308;2023-02-22T15:02:10;34.67;;;31.53;;
12556;SDS011;6344;49.932;8.308;2023-02-22T15:04:39;35.60;;;32.30;;
12556;SDS011;6344;49.932;8.308;2023-02-22T15:07:14;35.83;;;32.57;;
12556;SDS011;6344;49.932;8.308;2023-02-22T15:09:45;34.33;;;31.13;;
12556;SDS011;6344;49.932;8.308;2023-02-22T15:12:14;36.80;;;33.50;;
12556;SDS011;6344;49.932;8.308;2023-02-22T15:14:48;33.87;;;30.77;;
12556;SDS011;6344;49.932;8.308;2023-02-22T15:17:18;33.87;;;30.77;;